createdAt,value
2019-05-01T00:01:22.822Z,85.50
2019-05-01T00:04:20.742Z,82.70
2019-05-01T00:06:53.507Z,87.37
2019-05-01T00:09:23.437Z,86.95
2019-05-01T00:11:53.368Z,93.75
2019-05-01T00:14:23.718Z,87.55
2019-05-01T00:16:53.739Z,89.23
2019-05-01T00:19:23.556Z,92.27
2019-05-01T00:21:53.516Z,97.10
2019-05-01T00:24:23.444Z,94.93
2019-05-01T00:26:53.335Z,100.20
2019-05-01T00:29:23.361Z,108.05
2019-05-01T00:31:53.265Z,105.75
2019-05-01T00:34:23.431Z,104.95
2019-05-01T00:36:53.239Z,103.58
2019-05-01T00:39:23.322Z,108.27
2019-05-01T00:41:53.231Z,112.20
2019-05-01T00:44:23.489Z,111.57
2019-05-01T00:46:53.320Z,109.27
2019-05-01T00:49:23.107Z,113.68
2019-05-01T00:51:53.012Z,116.10
2019-05-01T00:54:24.538Z,124.78
2019-05-01T00:57:12.435Z,123.47
2019-05-01T00:59:54.843Z,127.67
2019-05-01T01:02:46.310Z,117.55
2019-05-01T01:05:16.328Z,123.95
2019-05-01T01:07:46.346Z,119.72
2019-05-01T01:10:16.308Z,128.20
2019-05-01T01:12:46.204Z,119.95
2019-05-01T01:15:16.283Z,118.62
2019-05-01T01:17:46.464Z,123.07
2019-05-01T01:20:16.448Z,119.02
2019-05-01T01:22:46.376Z,116.80
2019-05-01T01:25:16.270Z,123.80
2019-05-01T01:27:46.257Z,115.72
2019-05-01T01:30:16.332Z,117.87
2019-05-01T01:32:46.152Z,119.20
2019-05-01T01:35:16.053Z,131.23
2019-05-01T01:37:46.309Z,130.35
2019-05-01T01:40:16.648Z,124.72
2019-05-01T01:42:48.274Z,123.55
2019-05-01T01:45:41.076Z,132.07
2019-05-01T01:53:15.548Z,120.67
2019-05-01T01:55:47.253Z,122.63
2019-05-01T01:58:18.072Z,121.23
2019-05-01T02:01:09.595Z,131.83
2019-05-01T02:03:41.799Z,129.45
2019-05-01T02:06:11.787Z,120.92
2019-05-01T02:08:41.795Z,119.93
2019-05-01T02:11:12.078Z,131.87
2019-05-01T02:13:42.449Z,123.95
2019-05-01T02:16:12.276Z,124.07
2019-05-01T02:18:42.159Z,123.25
2019-05-01T02:21:12.068Z,126.70
2019-05-01T02:23:41.942Z,124.00
2019-05-01T02:26:13.560Z,116.22
2019-05-01T02:28:54.728Z,114.35
2019-05-01T02:31:32.941Z,114.75
2019-05-01T02:34:04.715Z,113.55
2019-05-01T02:36:36.604Z,113.35
2019-05-01T02:39:08.992Z,112.37
2019-05-01T02:41:42.348Z,113.15
2019-05-01T02:44:17.566Z,114.55
2019-05-01T02:46:50.528Z,116.50
2019-05-01T02:49:34.022Z,114.70
2019-05-01T02:52:05.339Z,115.55
2019-05-01T02:54:36.880Z,113.42
2019-05-01T02:57:12.738Z,114.40
2019-05-01T02:59:46.387Z,118.10
2019-05-01T03:02:17.405Z,114.67
2019-05-01T03:04:47.660Z,109.85
2019-05-01T03:07:19.182Z,105.22
2019-05-01T03:09:49.518Z,107.37
2019-05-01T03:12:22.352Z,104.53
2019-05-01T03:14:54.060Z,94.85
2019-05-01T03:17:41.720Z,79.72
2019-05-01T03:20:23.812Z,73.07
2019-05-01T03:23:16.397Z,67.67
2019-05-01T03:25:47.511Z,65.50
2019-05-01T03:28:17.799Z,68.83
2019-05-01T03:30:48.102Z,62.60
2019-05-01T03:33:18.128Z,59.73
2019-05-01T03:35:48.264Z,58.20
2019-05-01T03:38:18.604Z,64.35
2019-05-01T03:40:49.008Z,63.60
2019-05-01T03:43:19.488Z,58.85
2019-05-01T03:45:49.649Z,60.35
2019-05-01T03:48:20.369Z,58.90
2019-05-01T03:50:50.837Z,60.10
2019-05-01T03:53:20.853Z,55.28
2019-05-01T03:55:50.820Z,59.85
2019-05-01T03:58:21.278Z,65.53
2019-05-01T04:01:10.256Z,60.17
2019-05-01T04:03:50.101Z,60.03
2019-05-01T04:06:20.877Z,58.33
2019-05-01T04:08:51.383Z,55.10
2019-05-01T04:11:21.702Z,58.73
2019-05-01T04:13:51.655Z,60.87
2019-05-01T04:16:22.561Z,57.97
2019-05-01T04:18:52.605Z,59.65
2019-05-01T04:21:25.142Z,63.30
2019-05-01T04:23:55.263Z,60.38
2019-05-01T04:26:25.220Z,64.12
2019-05-01T04:29:01.599Z,62.38
2019-05-01T04:31:45.479Z,60.00
2019-05-01T04:34:37.774Z,61.80
2019-05-01T04:37:09.648Z,57.50
2019-05-01T04:39:39.705Z,67.87
2019-05-01T04:42:09.938Z,53.47
2019-05-01T04:44:40.081Z,58.20
2019-05-01T04:47:09.997Z,61.23
2019-05-01T04:49:39.973Z,54.90
2019-05-01T04:52:10.105Z,54.77
2019-05-01T04:54:40.599Z,64.57
2019-05-01T04:57:10.532Z,56.10
2019-05-01T04:59:40.819Z,51.00
2019-05-01T05:02:13.018Z,51.60
2019-05-01T05:04:43.276Z,53.83
2019-05-01T05:07:13.547Z,50.70
2019-05-01T05:09:44.704Z,53.77
2019-05-01T05:12:24.705Z,47.03
2019-05-01T05:14:59.531Z,58.10
2019-05-01T05:17:30.343Z,56.00
2019-05-01T05:20:00.356Z,53.90
2019-05-01T05:22:31.005Z,62.07
2019-05-01T05:25:01.221Z,58.20
2019-05-01T05:27:31.687Z,54.17
2019-05-01T05:30:02.363Z,65.00
2019-05-01T05:32:35.884Z,61.07
2019-05-01T05:35:07.081Z,59.07
2019-05-01T05:37:43.674Z,60.93
2019-05-01T05:40:13.928Z,55.13
2019-05-01T05:47:42.337Z,52.10
2019-05-01T06:09:50.051Z,48.27
2019-05-01T06:12:30.345Z,51.77
2019-05-01T06:15:10.923Z,53.10
2019-05-01T06:18:04.143Z,53.30
2019-05-01T06:20:44.067Z,54.58
2019-05-01T06:23:29.514Z,58.27
2019-05-01T06:26:21.010Z,50.30
2019-05-01T06:28:51.292Z,65.47
2019-05-01T06:31:23.197Z,66.70
2019-05-01T06:33:54.864Z,54.57
2019-05-01T06:36:24.784Z,58.80
2019-05-01T06:38:55.783Z,58.43
2019-05-01T06:41:33.735Z,53.02
2019-05-01T06:44:24.199Z,56.27
2019-05-01T06:47:05.137Z,52.27
2019-05-01T06:49:44.260Z,55.63
2019-05-01T06:52:16.652Z,52.30
2019-05-01T06:57:17.552Z,53.10
2019-05-01T06:59:48.181Z,53.80
2019-05-01T07:02:18.956Z,54.60
2019-05-01T07:04:50.387Z,50.00
2019-05-01T07:12:28.727Z,52.13
2019-05-01T07:15:00.053Z,54.23
2019-05-01T07:17:30.268Z,52.90
2019-05-01T07:20:18.409Z,52.73
2019-05-01T07:22:49.297Z,58.27
2019-05-01T07:27:48.474Z,56.68
2019-05-01T07:30:42.307Z,52.33
2019-05-01T07:33:16.743Z,54.07
2019-05-01T07:35:44.860Z,53.03
2019-05-01T07:38:17.300Z,55.30
2019-05-01T16:18:08.267Z,35.23
2019-05-01T16:20:38.269Z,34.60
2019-05-01T16:23:08.303Z,31.73
2019-05-01T16:25:38.582Z,31.90
2019-05-01T16:28:08.538Z,35.03
2019-05-01T16:30:40.540Z,31.87
2019-05-01T16:33:10.758Z,42.73
2019-05-01T16:35:40.800Z,35.83
2019-05-01T16:38:23.241Z,34.90
2019-05-01T16:41:04.087Z,36.43
2019-05-01T16:43:34.023Z,36.37
2019-05-01T16:46:04.081Z,35.43
2019-05-01T16:48:36.225Z,37.63
2019-05-01T16:51:07.768Z,39.93
2019-05-01T16:53:37.784Z,33.80
2019-05-01T16:56:07.734Z,34.93
2019-05-01T16:58:38.277Z,34.30
2019-05-01T17:01:18.011Z,37.33
2019-05-01T17:04:03.287Z,39.80
2019-05-01T17:06:55.260Z,32.33
2019-05-01T17:09:37.681Z,34.40
2019-05-01T17:12:16.881Z,38.30
2019-05-01T17:14:43.601Z,32.60
2019-05-01T17:17:17.862Z,32.40
2019-05-01T17:19:47.883Z,32.60
2019-05-01T17:22:20.249Z,32.30
2019-05-01T17:24:50.520Z,33.37
2019-05-01T17:27:20.399Z,35.30
2019-05-01T17:29:50.511Z,35.83
2019-05-01T17:32:20.603Z,34.73
2019-05-01T17:34:50.519Z,39.70
2019-05-01T17:37:20.524Z,42.47
2019-05-01T17:39:50.447Z,42.20
2019-05-01T17:42:20.454Z,40.20
2019-05-01T17:44:50.308Z,39.60
2019-05-01T17:47:22.507Z,39.83
2019-05-01T17:49:54.276Z,35.50
2019-05-01T17:52:24.224Z,35.83
2019-05-01T17:54:54.108Z,36.35
2019-05-01T17:59:54.753Z,33.42
2019-05-01T18:02:38.843Z,36.97
2019-05-01T18:05:14.288Z,41.40
2019-05-01T18:07:44.821Z,40.10
2019-05-01T18:10:15.238Z,39.37
2019-05-01T18:12:46.658Z,42.90
2019-05-01T18:15:18.122Z,40.07
2019-05-01T18:17:48.476Z,39.33
2019-05-01T18:20:18.706Z,41.40
2019-05-01T18:23:08.553Z,39.77
2019-05-01T18:26:04.801Z,37.43
2019-05-01T18:28:41.390Z,39.00
2019-05-01T18:31:16.415Z,39.30
2019-05-01T18:33:46.549Z,44.07
2019-05-01T18:36:25.679Z,43.07
2019-05-01T18:39:15.753Z,43.83
2019-05-01T18:41:58.730Z,46.70
2019-05-01T18:44:28.950Z,40.30
2019-05-01T18:46:59.125Z,39.83
2019-05-01T18:49:29.545Z,41.97
2019-05-01T18:52:01.596Z,44.60
2019-05-01T18:54:34.963Z,45.53
2019-05-01T18:57:03.473Z,44.90
2019-05-01T18:59:33.599Z,41.07
2019-05-01T19:02:03.755Z,57.77
2019-05-01T19:04:33.831Z,45.50
2019-05-01T19:07:04.088Z,46.43
2019-05-01T19:09:36.601Z,47.13
2019-05-01T19:12:08.493Z,49.17
2019-05-01T19:14:38.657Z,45.87
2019-05-01T19:17:08.964Z,45.27
2019-05-01T19:19:39.230Z,45.27
2019-05-01T19:22:09.454Z,34.10
2019-05-01T19:24:40.171Z,36.60
2019-05-01T19:27:14.193Z,31.80
2019-05-01T19:29:42.058Z,35.77
2019-05-01T19:32:13.190Z,31.43
2019-05-01T19:34:43.288Z,31.93
2019-05-01T19:37:16.474Z,30.10
2019-05-01T19:39:49.122Z,34.00
2019-05-01T19:42:21.495Z,36.07
2019-05-01T19:44:51.061Z,33.13
2019-05-01T19:47:20.226Z,40.20
2019-05-01T19:49:54.677Z,35.60
2019-05-01T19:52:27.705Z,42.23
2019-05-01T19:55:06.309Z,38.03
2019-05-01T19:57:36.694Z,34.93
2019-05-01T20:00:07.744Z,36.63
2019-05-01T20:02:41.133Z,40.80
2019-05-01T20:05:29.055Z,37.17
2019-05-01T20:08:05.470Z,35.43
2019-05-01T20:10:40.156Z,34.67
2019-05-01T20:13:13.350Z,37.80
2019-05-01T20:15:47.142Z,40.50
2019-05-01T20:18:26.917Z,39.37
2019-05-01T20:20:59.577Z,34.80
2019-05-01T20:23:35.672Z,37.30
2019-05-01T20:26:05.745Z,36.20
2019-05-01T20:28:44.362Z,37.23
2019-05-01T20:31:15.021Z,40.17
2019-05-01T20:33:50.493Z,39.90
2019-05-01T20:36:23.684Z,39.53
2019-05-01T20:38:53.639Z,37.60
2019-05-01T20:41:29.849Z,38.70
2019-05-01T20:44:06.440Z,35.67
2019-05-01T20:49:54.737Z,39.10
2019-05-01T20:52:25.798Z,37.97
2019-05-01T20:54:55.987Z,41.53
2019-05-01T20:57:30.625Z,40.00
2019-05-01T21:00:01.292Z,42.80
2019-05-01T21:02:31.595Z,43.27
2019-05-01T21:05:36.115Z,43.43
2019-05-01T21:08:15.296Z,35.40
2019-05-01T21:10:53.478Z,40.83
2019-05-01T21:13:24.803Z,37.50
2019-05-01T21:15:56.328Z,44.43
2019-05-01T21:18:27.760Z,41.13
2019-05-01T21:20:57.685Z,38.80
2019-05-01T21:23:27.647Z,37.87
2019-05-01T21:25:57.680Z,43.40
2019-05-01T21:28:27.952Z,43.80
2019-05-01T21:30:57.928Z,43.20
2019-05-01T21:33:28.181Z,38.10
2019-05-01T21:35:59.567Z,48.53
2019-05-01T21:38:29.780Z,47.20
2019-05-01T21:40:59.723Z,54.13
2019-05-01T21:43:33.214Z,46.13
2019-05-01T21:46:03.774Z,45.27
2019-05-01T21:48:33.636Z,48.00
2019-05-01T21:51:07.363Z,47.90
2019-05-01T21:53:37.342Z,43.50
2019-05-01T21:56:07.639Z,40.57
2019-05-01T21:58:37.640Z,43.63
2019-05-01T22:01:08.152Z,41.20
2019-05-01T22:03:38.339Z,43.98
2019-05-01T22:06:11.410Z,41.77
2019-05-01T22:08:41.109Z,37.83
2019-05-01T22:11:11.334Z,42.35
2019-05-01T22:13:41.513Z,44.15
2019-05-01T22:16:22.349Z,46.10
2019-05-01T22:19:00.265Z,45.73
2019-05-01T22:21:48.128Z,44.30
2019-05-01T22:24:32.521Z,44.48
2019-05-01T22:27:12.775Z,43.00
2019-05-01T22:29:52.094Z,39.73
2019-05-01T22:32:34.123Z,42.27
2019-05-01T22:35:15.587Z,39.13
2019-05-01T22:37:45.716Z,46.37
2019-05-01T22:40:18.304Z,47.10
2019-05-01T22:42:48.262Z,43.83
2019-05-01T22:45:21.343Z,45.78
2019-05-01T22:47:52.158Z,43.05
2019-05-01T22:50:22.330Z,43.83
2019-05-01T22:52:52.431Z,43.30
2019-05-01T22:55:25.446Z,44.40
2019-05-01T22:57:55.119Z,45.30
2019-05-01T23:00:39.598Z,44.33
2019-05-01T23:03:15.101Z,43.58
2019-05-01T23:05:45.212Z,50.10
2019-05-01T23:08:15.423Z,50.70
2019-05-01T23:10:46.955Z,46.48
2019-05-01T23:13:17.003Z,47.62
2019-05-01T23:15:56.209Z,46.60
2019-05-01T23:18:28.578Z,50.30
2019-05-01T23:20:58.675Z,47.43
2019-05-01T23:23:30.532Z,49.20
2019-05-01T23:26:00.793Z,48.92
2019-05-01T23:28:34.880Z,48.87
2019-05-01T23:31:03.141Z,54.60
2019-05-01T23:33:33.687Z,52.07
2019-05-01T23:36:04.372Z,45.98
2019-05-01T23:38:34.710Z,52.50
2019-05-01T23:41:04.826Z,60.20
2019-05-01T23:43:34.808Z,51.83
2019-05-01T23:46:05.746Z,51.00
2019-05-01T23:48:35.927Z,55.20
2019-05-01T23:51:06.082Z,56.55
2019-05-01T23:53:36.207Z,53.80
2019-05-01T23:56:06.277Z,55.40
